Terminal Aerodrome Forecast
Issued by NWS Rapid City, SD

Home | Current Version | Previous Version | Text Only | Print | Product List | Glossary On
Versions: 1 2 3 4 5 6 7 8 9 10 11 12 13 14 15 16 17 18 19 20
000
FTUS43 KUNR 241120
TAFRAP
TAF
KRAP 241120Z 2412/2512 32009KT P6SM SKC
     FM242200 14012KT P6SM VCTS BKN050CB
      TEMPO 2422/2502 3SM -TSRA OVC040CB
     FM250200 09010KT P6SM VCSH OVC030
     FM250500 02009KT P6SM OVC015=

USA.gov is the U.S. government's official web portal to all federal, state and local government web resources and services.